createdAt,value
2023-05-24T00:00:41.893Z,60.49
2023-05-24T00:01:41.770Z,59.98
2023-05-24T00:02:41.818Z,59.98
2023-05-24T00:03:41.894Z,58.94
2023-05-24T00:04:41.887Z,59.11
2023-05-24T00:05:41.710Z,59.31
2023-05-24T00:06:41.718Z,58.70
2023-05-24T00:07:41.690Z,59.21
2023-05-24T00:08:41.662Z,59.79
2023-05-24T00:09:41.677Z,59.08
2023-05-24T00:10:41.806Z,58.67
2023-05-24T00:11:41.656Z,58.60
2023-05-24T00:12:41.636Z,58.60
2023-05-24T00:13:41.619Z,59.82
2023-05-24T00:14:41.612Z,59.41
2023-05-24T00:15:41.587Z,59.52
2023-05-24T00:16:41.675Z,59.44
2023-05-24T00:17:41.783Z,59.64
2023-05-24T00:18:41.563Z,59.95
2023-05-24T00:19:41.571Z,59.95
2023-05-24T00:20:42.147Z,59.84
2023-05-24T00:21:41.550Z,59.01
2023-05-24T00:22:41.532Z,59.54
2023-05-24T00:23:41.503Z,59.34
2023-05-24T00:24:41.491Z,59.31
2023-05-24T00:25:41.516Z,59.14
2023-05-24T00:26:41.488Z,59.54
2023-05-24T00:27:41.464Z,59.34
2023-05-24T00:28:41.466Z,58.94
2023-05-24T00:29:41.472Z,59.11
2023-05-24T00:30:41.609Z,59.14
2023-05-24T00:31:41.456Z,59.24
2023-05-24T00:32:41.472Z,59.77
2023-05-24T00:33:41.423Z,60.05
2023-05-24T00:34:41.400Z,60.05
2023-05-24T00:35:41.416Z,59.44
2023-05-24T00:36:41.359Z,59.44
2023-05-24T00:37:41.363Z,59.01
2023-05-24T00:38:41.348Z,59.21
2023-05-24T00:39:41.348Z,59.41
2023-05-24T00:40:41.544Z,59.31
2023-05-24T00:41:41.340Z,59.41
2023-05-24T00:42:41.325Z,59.21
2023-05-24T00:43:41.285Z,59.21
2023-05-24T00:44:41.313Z,59.82
2023-05-24T00:45:41.269Z,59.54
2023-05-24T00:46:41.283Z,59.14
2023-05-24T00:47:41.304Z,60.15
2023-05-24T00:48:41.223Z,59.44
2023-05-24T00:49:41.225Z,58.91
2023-05-24T00:50:41.463Z,59.21
2023-05-24T00:51:41.220Z,59.14
2023-05-24T00:52:41.187Z,59.03
2023-05-24T00:53:41.173Z,59.64
2023-05-24T00:54:41.166Z,59.11
2023-05-24T00:55:41.161Z,59.75
2023-05-24T00:56:41.182Z,59.14
2023-05-24T00:57:41.176Z,60.36
2023-05-24T00:58:41.157Z,60.25
2023-05-24T00:59:41.136Z,59.75
2023-05-24T01:00:41.277Z,59.41
2023-05-24T01:01:41.181Z,59.24
2023-05-24T01:02:41.142Z,59.41
2023-05-24T01:03:41.153Z,59.44
2023-05-24T01:04:41.109Z,59.95
2023-05-24T01:05:41.051Z,59.75
2023-05-24T01:06:41.103Z,60.15
2023-05-24T01:07:41.024Z,60.25
2023-05-24T01:08:41.030Z,60.15
2023-05-24T01:09:41.037Z,59.95
2023-05-24T01:10:41.311Z,60.66
2023-05-24T01:11:40.973Z,59.88
2023-05-24T01:12:40.999Z,60.79
2023-05-24T01:13:40.975Z,60.28
2023-05-24T01:14:40.962Z,60.28
2023-05-24T01:15:40.995Z,60.59
2023-05-24T01:16:40.923Z,59.98
2023-05-24T01:17:40.937Z,60.08
2023-05-24T01:18:40.948Z,60.18
2023-05-24T01:19:40.894Z,60.08
2023-05-24T01:20:41.172Z,59.57
2023-05-24T01:21:40.867Z,60.18
2023-05-24T01:22:40.879Z,59.98
2023-05-24T01:23:40.918Z,59.30
2023-05-24T01:24:40.860Z,60.00
2023-05-24T01:25:40.837Z,59.91
2023-05-24T01:26:40.843Z,59.77
2023-05-24T01:27:40.875Z,58.86
2023-05-24T01:28:40.791Z,59.16
2023-05-24T01:29:40.900Z,59.37
2023-05-24T01:30:40.969Z,59.47
2023-05-24T01:31:40.825Z,59.37
2023-05-24T01:32:40.821Z,59.64
2023-05-24T01:33:40.737Z,58.45
2023-05-24T01:34:40.726Z,58.96
2023-05-24T01:35:40.750Z,58.65
2023-05-24T01:36:40.710Z,58.65
2023-05-24T01:37:40.700Z,58.65
2023-05-24T01:38:40.679Z,58.76
2023-05-24T01:39:40.683Z,58.35
2023-05-24T01:40:40.925Z,58.38
2023-05-24T01:41:41.179Z,59.19
2023-05-24T01:42:40.687Z,58.99
2023-05-24T01:43:40.647Z,59.12
2023-05-24T01:44:40.637Z,58.99
2023-05-24T01:45:40.644Z,58.81
2023-05-24T01:46:40.630Z,59.12
2023-05-24T01:47:40.619Z,59.01
2023-05-24T01:48:40.597Z,59.25
2023-05-24T01:49:40.580Z,59.25
2023-05-24T01:50:40.615Z,59.63
2023-05-24T01:51:40.601Z,59.63
2023-05-24T01:52:40.556Z,59.30
2023-05-24T01:53:40.528Z,58.51
2023-05-24T01:54:40.506Z,59.12
2023-05-24T01:55:40.504Z,59.73
2023-05-24T01:56:40.524Z,58.89
2023-05-24T01:57:40.467Z,58.89
2023-05-24T01:58:40.532Z,59.12
2023-05-24T01:59:40.476Z,58.81
2023-05-24T02:00:40.587Z,59.30
2023-05-24T02:01:40.467Z,58.48
2023-05-24T02:02:40.464Z,59.83
2023-05-24T02:03:40.457Z,59.30
2023-05-24T02:04:40.406Z,58.51
2023-05-24T02:05:40.383Z,59.14
2023-05-24T02:06:40.388Z,59.32
2023-05-24T02:07:40.356Z,59.63
2023-05-24T02:08:40.351Z,59.91
2023-05-24T02:09:40.402Z,59.09
2023-05-24T02:10:40.527Z,58.38
2023-05-24T02:11:40.318Z,58.28
2023-05-24T02:12:40.335Z,58.17
2023-05-24T02:13:40.293Z,58.58
2023-05-24T02:14:40.277Z,58.78
2023-05-24T02:15:40.273Z,58.76
2023-05-24T02:16:40.340Z,58.86
2023-05-24T02:17:40.296Z,58.45
2023-05-24T02:18:40.283Z,58.04
2023-05-24T02:19:40.242Z,57.95
2023-05-24T02:20:40.434Z,58.56
2023-05-24T02:21:40.216Z,58.38
2023-05-24T02:22:40.237Z,58.17
2023-05-24T02:23:40.196Z,58.58
2023-05-24T02:24:40.192Z,58.56
2023-05-24T02:25:40.164Z,58.25
2023-05-24T02:26:40.200Z,58.25
2023-05-24T02:27:40.150Z,58.04
2023-05-24T02:28:40.130Z,57.84
2023-05-24T02:29:40.142Z,58.04
2023-05-24T02:30:40.261Z,58.25
2023-05-24T02:31:40.195Z,57.87
2023-05-24T02:32:40.173Z,58.38
2023-05-24T02:33:40.169Z,58.69
2023-05-24T02:34:40.074Z,58.76
2023-05-24T02:35:40.082Z,58.58
2023-05-24T02:36:40.075Z,58.89
2023-05-24T02:37:40.046Z,58.99
2023-05-24T02:38:40.029Z,58.69
2023-05-24T02:39:40.029Z,58.69
2023-05-24T02:40:40.108Z,58.10
2023-05-24T02:41:40.003Z,58.81
2023-05-24T02:42:39.978Z,58.51
2023-05-24T02:43:39.970Z,58.92
2023-05-24T02:44:39.947Z,58.71
2023-05-24T02:45:39.961Z,58.92
2023-05-24T02:46:40.080Z,59.01
2023-05-24T02:47:39.958Z,58.51
2023-05-24T02:48:39.910Z,58.89
2023-05-24T02:49:39.917Z,58.58
2023-05-24T02:50:39.895Z,58.71
2023-05-24T02:51:39.874Z,59.14
2023-05-24T02:52:39.886Z,59.25
2023-05-24T02:53:39.869Z,59.38
2023-05-24T02:54:39.849Z,59.17
2023-05-24T02:55:39.831Z,59.35
2023-05-24T02:56:39.838Z,59.45
2023-05-24T02:57:39.832Z,59.75
2023-05-24T02:58:39.827Z,59.96
2023-05-24T02:59:39.779Z,59.75
2023-05-24T03:00:39.861Z,59.12
2023-05-24T03:01:39.798Z,59.32
2023-05-24T03:02:39.852Z,59.83
2023-05-24T03:03:39.848Z,59.93
2023-05-24T03:04:39.748Z,58.71
2023-05-24T03:05:39.772Z,58.51
2023-05-24T03:06:39.717Z,59.32
2023-05-24T03:07:39.694Z,58.81
2023-05-24T03:08:39.707Z,58.28
2023-05-24T03:09:39.680Z,58.81
2023-05-24T03:10:39.821Z,58.51
2023-05-24T03:11:39.689Z,58.71
2023-05-24T03:12:39.658Z,59.75
2023-05-24T03:13:39.633Z,59.22
2023-05-24T03:14:39.611Z,59.14
2023-05-24T03:15:39.616Z,59.14
2023-05-24T03:16:39.665Z,59.66
2023-05-24T03:17:39.672Z,59.35
2023-05-24T03:18:39.575Z,58.74
2023-05-24T03:19:39.583Z,58.84
2023-05-24T03:20:39.681Z,58.61
2023-05-24T03:21:39.577Z,58.71
2023-05-24T03:22:39.554Z,58.84
2023-05-24T03:23:39.537Z,58.81
2023-05-24T03:24:39.506Z,59.32
2023-05-24T03:25:39.517Z,59.32
2023-05-24T03:26:39.490Z,58.74
2023-05-24T03:27:39.525Z,59.35
2023-05-24T03:28:39.462Z,59.68
2023-05-24T03:29:39.454Z,59.05
2023-05-24T03:30:39.462Z,59.35
2023-05-24T03:31:39.466Z,59.35
2023-05-24T03:32:39.499Z,59.28
2023-05-24T03:33:39.437Z,59.35
2023-05-24T03:34:39.443Z,59.75
2023-05-24T03:35:39.419Z,59.05
2023-05-24T03:36:39.387Z,59.22
2023-05-24T03:37:39.398Z,58.81
2023-05-24T03:38:39.375Z,58.51
2023-05-24T03:39:39.357Z,58.74
2023-05-24T03:40:39.395Z,58.94
2023-05-24T03:41:39.321Z,58.53
2023-05-24T03:42:39.369Z,59.35
2023-05-24T03:43:39.328Z,59.68
2023-05-24T03:44:39.353Z,59.45
2023-05-24T03:45:40.193Z,59.05
2023-05-24T03:46:39.280Z,59.14
2023-05-24T03:47:39.306Z,59.14
2023-05-24T03:48:39.280Z,58.94
2023-05-24T03:49:39.240Z,59.25
2023-05-24T03:50:39.229Z,58.74
2023-05-24T03:51:39.241Z,59.86
2023-05-24T03:52:39.201Z,59.25
2023-05-24T03:53:39.249Z,59.55
2023-05-24T03:54:39.198Z,59.14
2023-05-24T03:55:39.177Z,59.75
2023-05-24T03:56:39.167Z,59.25
2023-05-24T03:57:39.173Z,59.48
2023-05-24T03:58:39.129Z,59.55
2023-05-24T03:59:41.100Z,59.55
2023-05-24T04:00:39.122Z,59.66
2023-05-24T04:01:39.109Z,59.45
2023-05-24T04:02:39.332Z,59.25
2023-05-24T04:03:39.210Z,59.68
2023-05-24T04:04:39.066Z,59.68
2023-05-24T04:05:39.094Z,60.06
2023-05-24T04:06:39.043Z,59.25
2023-05-24T04:07:39.047Z,59.66
2023-05-24T04:08:39.062Z,59.05
2023-05-24T04:09:39.032Z,59.35
2023-05-24T04:10:39.013Z,59.28
2023-05-24T04:11:39.006Z,60.09
2023-05-24T04:12:38.993Z,60.37
2023-05-24T04:13:39.018Z,60.27
2023-05-24T04:14:38.978Z,60.06
2023-05-24T04:15:38.960Z,60.09
2023-05-24T04:16:38.981Z,59.78
2023-05-24T04:17:39.148Z,60.80
2023-05-24T04:18:38.975Z,60.39
2023-05-24T04:19:38.924Z,60.63
2023-05-24T04:20:38.960Z,60.63
2023-05-24T04:21:38.927Z,60.50
2023-05-24T04:22:38.869Z,60.50
2023-05-24T04:23:38.882Z,60.50
2023-05-24T04:24:38.889Z,60.91
2023-05-24T04:25:38.858Z,60.60
2023-05-24T04:26:38.817Z,60.91
2023-05-24T04:27:38.822Z,60.88
2023-05-24T04:28:38.797Z,60.47
2023-05-24T04:29:38.788Z,59.89
2023-05-24T04:30:38.788Z,60.30
2023-05-24T04:31:38.837Z,60.70
2023-05-24T04:32:38.796Z,60.73
2023-05-24T04:33:38.740Z,61.24
2023-05-24T04:34:38.775Z,61.44
2023-05-24T04:35:38.719Z,61.85
2023-05-24T04:36:38.727Z,61.44
2023-05-24T04:37:38.722Z,61.41
2023-05-24T04:38:38.698Z,61.11
2023-05-24T04:39:38.679Z,61.18
2023-05-24T04:40:38.675Z,60.54
2023-05-24T04:41:38.678Z,60.54
2023-05-24T04:42:38.708Z,60.06
2023-05-24T04:43:38.670Z,60.88
2023-05-24T04:44:38.636Z,60.57
2023-05-24T04:45:38.612Z,60.57
2023-05-24T04:46:38.632Z,60.37
2023-05-24T04:47:38.618Z,60.88
2023-05-24T04:48:38.587Z,60.77
2023-05-24T04:49:38.600Z,60.34
2023-05-24T04:50:38.567Z,60.47
2023-05-24T04:51:38.735Z,60.03
2023-05-24T04:52:38.532Z,60.34
2023-05-24T04:53:38.550Z,60.24
2023-05-24T04:54:38.545Z,60.06
2023-05-24T04:55:38.516Z,60.57
2023-05-24T04:56:38.652Z,60.37
2023-05-24T04:57:38.501Z,59.99
2023-05-24T04:58:39.419Z,60.19
2023-05-24T04:59:38.475Z,60.68
2023-05-24T05:00:38.499Z,60.88
2023-05-24T05:01:38.551Z,60.39
2023-05-24T05:02:38.568Z,60.68
2023-05-24T05:03:38.524Z,60.77
2023-05-24T05:04:38.463Z,60.47
2023-05-24T05:05:38.393Z,59.96
2023-05-24T05:06:38.486Z,60.06
2023-05-24T05:07:38.421Z,60.34
2023-05-24T05:08:38.359Z,59.22
2023-05-24T05:09:38.353Z,59.53
2023-05-24T05:10:38.337Z,59.12
2023-05-24T05:11:38.332Z,58.61
2023-05-24T05:12:38.358Z,59.93
2023-05-24T05:13:38.320Z,59.60
2023-05-24T05:14:38.293Z,59.19
2023-05-24T05:15:38.289Z,59.60
2023-05-24T05:16:38.337Z,59.30
2023-05-24T05:17:38.310Z,59.06
2023-05-24T05:18:38.277Z,58.35
2023-05-24T05:19:38.257Z,58.15
2023-05-24T05:20:38.314Z,58.25
2023-05-24T05:21:38.211Z,58.15
2023-05-24T05:22:38.211Z,58.15
2023-05-24T05:23:38.207Z,57.95
2023-05-24T05:24:38.221Z,58.25
2023-05-24T05:25:38.191Z,58.56
2023-05-24T05:26:38.181Z,57.84
2023-05-24T05:27:38.144Z,57.84
2023-05-24T05:28:38.144Z,58.15
2023-05-24T05:29:38.149Z,58.12
2023-05-24T05:30:38.138Z,57.41
2023-05-24T05:31:38.103Z,58.12
2023-05-24T05:32:38.190Z,57.74
2023-05-24T05:33:38.104Z,58.15
2023-05-24T05:34:38.088Z,58.65
2023-05-24T05:35:38.070Z,57.74
2023-05-24T05:36:38.047Z,57.64
2023-05-24T05:37:38.043Z,57.64
2023-05-24T05:38:38.037Z,57.03
2023-05-24T05:39:38.042Z,56.93
2023-05-24T05:40:38.015Z,57.03
2023-05-24T05:41:37.991Z,57.23
2023-05-24T05:42:37.981Z,57.10
2023-05-24T05:43:37.972Z,56.82
2023-05-24T05:44:37.960Z,56.93
2023-05-24T05:45:38.007Z,57.34
2023-05-24T05:46:37.994Z,57.54
2023-05-24T05:47:37.955Z,56.73
2023-05-24T05:48:37.947Z,56.55
2023-05-24T05:49:37.909Z,56.55
2023-05-24T05:50:37.918Z,56.95
2023-05-24T05:51:37.904Z,56.93
2023-05-24T05:52:37.896Z,57.23
2023-05-24T05:53:37.859Z,56.62
2023-05-24T05:54:37.872Z,56.90
2023-05-24T05:55:37.857Z,56.52
2023-05-24T05:56:37.832Z,56.52
2023-05-24T05:57:37.838Z,56.42
2023-05-24T05:58:37.806Z,56.19
2023-05-24T05:59:37.800Z,56.06
2023-05-24T06:00:37.819Z,56.06
2023-05-24T06:01:37.804Z,55.96
2023-05-24T06:02:37.844Z,55.15
2023-05-24T06:03:37.840Z,56.49
2023-05-24T06:04:37.879Z,56.67
2023-05-24T06:05:37.757Z,56.16
2023-05-24T06:06:37.727Z,54.84
2023-05-24T06:07:37.719Z,54.97
2023-05-24T06:08:37.708Z,55.27
2023-05-24T06:09:37.708Z,54.97
2023-05-24T06:10:37.673Z,55.86
2023-05-24T06:11:37.716Z,54.74
2023-05-24T06:12:37.653Z,54.51
2023-05-24T06:13:37.650Z,54.92
2023-05-24T06:14:37.637Z,55.12
2023-05-24T06:15:37.616Z,54.28
2023-05-24T06:16:37.701Z,54.41
2023-05-24T06:17:37.743Z,54.00
2023-05-24T06:18:37.617Z,54.28
2023-05-24T06:19:37.579Z,54.11
2023-05-24T06:20:37.655Z,54.31
2023-05-24T06:21:37.618Z,54.18
2023-05-24T06:22:37.538Z,54.18
2023-05-24T06:23:37.547Z,54.36
2023-05-24T06:24:37.543Z,53.60
2023-05-24T06:25:37.507Z,53.37
2023-05-24T06:26:37.506Z,53.14
2023-05-24T06:27:37.489Z,53.45
2023-05-24T06:28:37.478Z,52.94
2023-05-24T06:29:37.552Z,52.73
2023-05-24T06:30:37.592Z,53.22
2023-05-24T06:31:37.556Z,52.81
2023-05-24T06:32:37.516Z,52.41
2023-05-24T06:33:38.290Z,51.19
2023-05-24T06:34:37.422Z,51.39
2023-05-24T06:35:37.422Z,50.99
2023-05-24T06:36:37.381Z,51.50
2023-05-24T06:37:37.393Z,52.41
2023-05-24T06:38:37.392Z,52.11
2023-05-24T06:39:37.360Z,52.11
2023-05-24T06:40:37.344Z,52.08
2023-05-24T06:41:37.365Z,51.72
2023-05-24T06:42:37.362Z,51.85
2023-05-24T06:43:37.331Z,52.05
2023-05-24T06:44:37.339Z,52.69
2023-05-24T06:45:37.301Z,52.69
2023-05-24T06:46:37.367Z,53.39
2023-05-24T06:47:37.346Z,53.50
2023-05-24T06:48:37.333Z,52.79
2023-05-24T06:49:37.285Z,53.37
2023-05-24T06:50:37.826Z,52.69
2023-05-24T06:51:37.224Z,53.27
2023-05-24T06:52:37.234Z,53.27
2023-05-24T06:53:37.211Z,53.17
2023-05-24T06:54:37.194Z,53.06
2023-05-24T06:55:37.199Z,53.37
2023-05-24T06:56:37.168Z,52.66
2023-05-24T06:57:37.156Z,52.76
2023-05-24T06:58:37.222Z,52.69
2023-05-24T06:59:37.153Z,53.30
2023-05-24T07:00:37.136Z,53.39
2023-05-24T07:01:37.163Z,54.31
2023-05-24T07:02:37.124Z,53.91
2023-05-24T07:03:37.088Z,54.11
2023-05-24T07:04:37.188Z,54.31
2023-05-24T07:05:37.101Z,54.31
2023-05-24T07:06:37.056Z,54.72
2023-05-24T07:07:37.042Z,54.44
2023-05-24T07:08:37.030Z,54.72
2023-05-24T07:09:37.033Z,54.82
2023-05-24T07:10:37.033Z,55.10
2023-05-24T07:11:37.018Z,54.77
2023-05-24T07:12:37.023Z,54.28
2023-05-24T07:13:37.254Z,54.69
2023-05-24T07:14:37.031Z,54.90
2023-05-24T07:15:37.234Z,54.59
2023-05-24T07:16:37.424Z,54.66
2023-05-24T07:17:37.232Z,54.16
2023-05-24T07:18:37.102Z,54.24
2023-05-24T07:19:36.937Z,54.84
2023-05-24T07:20:36.928Z,54.44
2023-05-24T07:21:36.953Z,54.71
2023-05-24T07:22:36.902Z,54.11
2023-05-24T07:23:37.083Z,54.18
2023-05-24T07:24:36.977Z,54.79
2023-05-24T07:25:36.838Z,53.67
2023-05-24T07:26:36.846Z,53.88
2023-05-24T07:27:36.857Z,53.07
2023-05-24T07:28:36.813Z,53.58
2023-05-24T07:29:36.838Z,54.18
2023-05-24T07:30:36.822Z,53.27
2023-05-24T07:31:36.776Z,53.07
2023-05-24T07:32:36.916Z,52.56
2023-05-24T07:33:36.844Z,52.33
2023-05-24T07:34:36.755Z,52.03
2023-05-24T07:35:36.762Z,51.81
2023-05-24T07:36:36.725Z,51.30
2023-05-24T07:37:36.734Z,50.09
2023-05-24T07:38:36.694Z,50.18
2023-05-24T07:39:36.713Z,50.59
2023-05-24T07:40:36.859Z,50.67
2023-05-24T07:41:36.924Z,50.89
2023-05-24T07:42:36.656Z,50.71
2023-05-24T07:43:36.641Z,51.93
2023-05-24T07:44:36.638Z,51.86
2023-05-24T07:45:36.661Z,52.36
2023-05-24T07:46:36.701Z,52.36
2023-05-24T07:47:36.626Z,53.07
2023-05-24T07:48:36.609Z,53.50
2023-05-24T07:49:36.579Z,52.99
2023-05-24T07:50:36.574Z,53.09
2023-05-24T07:51:36.555Z,53.07
2023-05-24T07:52:36.559Z,53.47
2023-05-24T07:53:36.682Z,53.47
2023-05-24T07:54:36.533Z,53.40
2023-05-24T07:55:36.514Z,53.50
2023-05-24T07:56:36.517Z,53.09
2023-05-24T07:57:36.521Z,53.09
2023-05-24T07:58:36.497Z,53.80
2023-05-24T07:59:36.472Z,53.17
2023-05-24T08:00:37.513Z,53.40
2023-05-24T08:01:37.443Z,53.47
2023-05-24T08:02:36.516Z,53.40
2023-05-24T08:03:36.605Z,53.19
2023-05-24T08:04:36.436Z,53.30
2023-05-24T08:05:36.407Z,53.09
2023-05-24T08:06:36.408Z,54.61
2023-05-24T08:07:36.397Z,54.18
2023-05-24T08:08:36.366Z,54.49
2023-05-24T08:09:36.606Z,53.98
2023-05-24T08:10:36.362Z,53.65
2023-05-24T08:11:36.344Z,53.25
2023-05-24T08:12:36.322Z,53.14
2023-05-24T08:13:36.318Z,53.32
2023-05-24T08:14:36.332Z,52.11
2023-05-24T08:15:36.312Z,52.72
2023-05-24T08:16:36.329Z,52.81
2023-05-24T08:17:36.354Z,52.59
2023-05-24T08:18:36.270Z,53.19
2023-05-24T08:19:36.269Z,52.72
2023-05-24T08:20:36.362Z,52.72
2023-05-24T08:21:36.243Z,53.42
2023-05-24T08:22:36.211Z,52.59
2023-05-24T08:23:36.204Z,52.59
2023-05-24T08:24:36.206Z,53.19
2023-05-24T08:25:36.242Z,52.56
2023-05-24T08:26:36.170Z,51.96
2023-05-24T08:27:36.165Z,52.39
2023-05-24T08:28:36.176Z,52.26
2023-05-24T08:29:36.153Z,52.26
2023-05-24T08:30:36.132Z,52.16
2023-05-24T08:31:36.137Z,52.03
2023-05-24T08:32:36.137Z,51.43
2023-05-24T08:33:36.155Z,50.44
2023-05-24T08:34:36.085Z,51.35
2023-05-24T08:35:36.083Z,50.72
2023-05-24T08:36:36.056Z,50.72
2023-05-24T08:37:36.060Z,50.92
2023-05-24T08:38:36.036Z,50.82
2023-05-24T08:39:36.048Z,50.42
2023-05-24T08:40:36.007Z,50.29
2023-05-24T08:41:36.115Z,50.09
2023-05-24T08:42:36.009Z,50.27
2023-05-24T08:43:43.612Z,50.35
2023-05-24T08:44:35.972Z,49.74
2023-05-24T08:45:35.996Z,48.13
2023-05-24T08:46:36.031Z,48.05
2023-05-24T08:47:36.015Z,48.85
2023-05-24T08:48:35.994Z,49.44
2023-05-24T08:49:35.918Z,49.64
2023-05-24T08:50:35.922Z,49.64
2023-05-24T08:51:35.895Z,49.74
2023-05-24T08:52:35.899Z,50.35
2023-05-24T08:53:35.909Z,50.57
2023-05-24T08:54:35.920Z,49.99
2023-05-24T08:55:35.859Z,50.12
2023-05-24T08:56:35.874Z,51.23
2023-05-24T08:57:35.849Z,50.42
2023-05-24T08:58:35.830Z,50.90
2023-05-24T08:59:35.832Z,50.80
2023-05-24T09:00:35.809Z,50.21
2023-05-24T09:01:36.822Z,50.64
2023-05-24T09:02:35.854Z,50.44
2023-05-24T09:03:35.905Z,50.34
2023-05-24T09:04:35.745Z,49.33
2023-05-24T09:05:35.786Z,50.21
2023-05-24T09:06:35.745Z,49.41
2023-05-24T09:07:35.736Z,49.05
2023-05-24T09:08:35.705Z,50.04
2023-05-24T09:09:35.694Z,50.54
2023-05-24T09:10:49.588Z,50.12
2023-05-24T09:11:38.825Z,49.91
2023-05-24T09:12:38.189Z,49.99
2023-05-24T09:13:35.693Z,50.07
2023-05-24T09:14:35.638Z,49.24
2023-05-24T09:15:35.670Z,47.97
2023-05-24T09:16:35.633Z,49.28
2023-05-24T09:17:35.819Z,49.33
2023-05-24T09:18:35.605Z,50.14
2023-05-24T09:19:35.613Z,49.73
2023-05-24T09:20:35.636Z,50.01
2023-05-24T09:21:35.554Z,49.63
2023-05-24T09:22:38.150Z,50.12
2023-05-24T09:23:35.573Z,49.61
2023-05-24T09:24:35.540Z,49.30
2023-05-24T09:25:35.512Z,50.42
2023-05-24T09:26:35.505Z,49.18
2023-05-24T09:27:35.489Z,50.39
2023-05-24T09:28:35.487Z,49.21
2023-05-24T09:29:35.518Z,49.18
2023-05-24T09:30:35.463Z,50.29
2023-05-24T09:31:35.514Z,50.32
2023-05-24T09:32:35.501Z,50.12
2023-05-24T09:33:35.464Z,50.52
2023-05-24T09:34:35.428Z,50.84
2023-05-24T09:35:35.402Z,50.64
2023-05-24T09:36:35.410Z,51.15
2023-05-24T09:37:35.380Z,50.82
2023-05-24T09:38:35.391Z,50.82
2023-05-24T09:39:35.367Z,50.52
2023-05-24T09:40:35.391Z,51.12
2023-05-24T09:41:35.357Z,50.62
2023-05-24T09:42:35.358Z,51.63
2023-05-24T09:43:35.336Z,50.82
2023-05-24T09:44:35.303Z,51.63
2023-05-24T09:45:35.330Z,50.32
2023-05-24T09:46:35.330Z,50.59
2023-05-24T09:47:35.304Z,50.72
2023-05-24T09:48:35.280Z,51.03
2023-05-24T09:49:35.242Z,49.73
2023-05-24T09:50:35.232Z,49.15
2023-05-24T09:51:35.239Z,48.82
2023-05-24T09:52:36.076Z,50.21
2023-05-24T09:53:35.221Z,50.21
2023-05-24T09:54:35.215Z,49.58
2023-05-24T09:55:35.179Z,48.88
2023-05-24T09:56:35.173Z,48.65
2023-05-24T09:57:35.173Z,48.43
2023-05-24T09:58:35.180Z,47.12
2023-05-24T09:59:35.150Z,47.02
2023-05-24T10:00:35.134Z,47.50
2023-05-24T10:01:35.221Z,47.19
2023-05-24T10:02:45.197Z,46.39
2023-05-24T10:03:36.237Z,45.56
2023-05-24T10:04:35.138Z,44.90
2023-05-24T10:05:35.099Z,45.00
2023-05-24T10:06:35.092Z,45.20
2023-05-24T10:07:35.059Z,45.70
2023-05-24T10:08:35.067Z,44.49
2023-05-24T10:09:35.061Z,45.78
2023-05-24T10:10:35.054Z,45.78
2023-05-24T10:11:35.027Z,44.37
2023-05-24T10:12:35.000Z,45.48
2023-05-24T10:13:35.015Z,47.34
2023-05-24T10:14:34.980Z,47.97
2023-05-24T10:15:34.979Z,47.85
2023-05-24T10:16:35.008Z,48.90
2023-05-24T10:17:35.020Z,50.12
2023-05-24T10:18:34.936Z,50.52
2023-05-24T10:19:34.918Z,49.81
2023-05-24T10:20:34.926Z,49.79
2023-05-24T10:21:34.932Z,49.69
2023-05-24T10:22:34.903Z,50.29
2023-05-24T10:23:34.899Z,50.07
2023-05-24T10:24:34.868Z,49.04
2023-05-24T10:25:34.853Z,48.73
2023-05-24T10:26:34.848Z,49.52
2023-05-24T10:27:34.874Z,47.32
2023-05-24T10:28:34.842Z,47.62
2023-05-24T10:29:34.828Z,48.50
2023-05-24T10:30:34.854Z,47.70
2023-05-24T10:31:34.868Z,45.98
2023-05-24T10:32:34.809Z,46.89
2023-05-24T10:33:34.901Z,46.29
2023-05-24T10:34:34.848Z,46.71
2023-05-24T10:35:34.741Z,47.09
2023-05-24T10:36:34.741Z,47.55
2023-05-24T10:37:34.723Z,46.04
2023-05-24T10:38:34.733Z,46.55
2023-05-24T10:39:34.713Z,47.15
2023-05-24T10:40:34.711Z,47.13
2023-05-24T10:41:34.682Z,46.93
2023-05-24T10:42:34.691Z,47.33
2023-05-24T10:43:34.655Z,47.94
2023-05-24T10:44:34.645Z,47.83
2023-05-24T10:45:34.648Z,48.14
2023-05-24T10:46:34.706Z,47.96
2023-05-24T10:47:36.416Z,47.75
2023-05-24T10:48:34.624Z,48.86
2023-05-24T10:49:34.659Z,48.76
2023-05-24T10:50:34.579Z,48.84
2023-05-24T10:51:34.587Z,48.54
2023-05-24T10:52:34.579Z,47.41
2023-05-24T10:53:34.563Z,46.93
2023-05-24T10:54:34.546Z,47.23
2023-05-24T10:55:34.535Z,46.55
2023-05-24T10:56:34.520Z,46.77
2023-05-24T10:57:34.521Z,47.90
2023-05-24T10:58:34.489Z,48.41
2023-05-24T10:59:34.535Z,48.10
2023-05-24T11:00:36.044Z,47.80
2023-05-24T11:01:34.525Z,48.21
2023-05-24T11:02:34.479Z,49.19
2023-05-24T11:03:34.460Z,49.79
2023-05-24T11:04:34.454Z,49.16
2023-05-24T11:05:34.511Z,48.76
2023-05-24T11:06:34.413Z,49.07
2023-05-24T11:07:34.449Z,50.27
2023-05-24T11:08:34.395Z,49.15
2023-05-24T11:09:34.418Z,49.24
2023-05-24T11:10:34.365Z,49.16
2023-05-24T11:11:34.380Z,48.96
2023-05-24T11:12:34.350Z,49.16
2023-05-24T11:13:34.333Z,49.15
2023-05-24T11:14:34.357Z,49.27
2023-05-24T11:15:34.309Z,48.94
2023-05-24T11:16:34.462Z,48.94
2023-05-24T11:17:34.330Z,49.47
2023-05-24T11:18:34.292Z,48.94
2023-05-24T11:19:34.325Z,49.24
2023-05-24T11:20:34.324Z,48.14
2023-05-24T11:21:34.267Z,47.51
2023-05-24T11:22:34.260Z,47.03
2023-05-24T11:23:36.636Z,47.53
2023-05-24T11:24:34.236Z,46.75
2023-05-24T11:25:34.203Z,47.53
2023-05-24T11:26:34.210Z,47.03
2023-05-24T11:27:34.200Z,47.51
2023-05-24T11:28:34.210Z,46.40
2023-05-24T11:29:36.081Z,47.08
2023-05-24T11:30:34.158Z,45.87
2023-05-24T11:31:34.334Z,44.89
2023-05-24T11:32:34.154Z,46.00
2023-05-24T11:33:34.114Z,46.20
2023-05-24T11:34:34.106Z,45.19
2023-05-24T11:35:34.091Z,44.39
2023-05-24T11:36:34.094Z,43.59
2023-05-24T11:37:45.587Z,44.51
2023-05-24T11:38:35.084Z,45.19
2023-05-24T11:39:34.100Z,44.69
2023-05-24T11:40:34.031Z,44.29
2023-05-24T11:41:34.022Z,43.68
2023-05-24T11:42:34.016Z,44.27
2023-05-24T11:43:34.019Z,44.57
2023-05-24T11:44:33.989Z,44.24
2023-05-24T11:45:34.024Z,43.68
2023-05-24T11:46:33.978Z,44.47
2023-05-24T11:47:34.045Z,44.47
2023-05-24T11:48:33.963Z,44.04
2023-05-24T11:49:33.986Z,44.77
2023-05-24T11:50:45.647Z,43.84
2023-05-24T11:51:34.909Z,43.66
2023-05-24T11:52:33.928Z,44.17
2023-05-24T11:53:33.929Z,44.69
2023-05-24T11:54:33.888Z,45.42
2023-05-24T11:55:33.906Z,44.92
2023-05-24T11:56:34.343Z,45.32
2023-05-24T11:57:33.866Z,46.73
2023-05-24T11:58:33.834Z,46.10
2023-05-24T11:59:33.859Z,46.30
2023-05-24T12:00:33.822Z,46.30
2023-05-24T12:01:33.826Z,46.20
2023-05-24T12:02:33.874Z,46.53
2023-05-24T12:03:33.963Z,47.31
2023-05-24T12:04:33.828Z,47.31
2023-05-24T12:05:33.771Z,47.59
2023-05-24T12:06:33.755Z,47.28
2023-05-24T12:07:33.763Z,47.51
2023-05-24T12:08:33.727Z,47.13
2023-05-24T12:09:33.752Z,47.05
2023-05-24T12:10:33.709Z,47.23
2023-05-24T12:11:33.690Z,46.73
2023-05-24T12:12:42.432Z,46.70
2023-05-24T12:13:34.664Z,47.28
2023-05-24T12:14:33.696Z,47.08
2023-05-24T12:15:33.714Z,44.87
2023-05-24T12:16:33.781Z,45.70
2023-05-24T12:17:33.654Z,46.25
2023-05-24T12:18:33.631Z,47.07
2023-05-24T12:19:34.180Z,47.45
2023-05-24T12:20:33.661Z,47.15
2023-05-24T12:21:33.593Z,47.55
2023-05-24T12:22:33.583Z,47.53
2023-05-24T12:23:33.604Z,47.35
2023-05-24T12:24:33.575Z,48.01
2023-05-24T12:25:33.569Z,46.91
2023-05-24T12:26:33.526Z,47.20
2023-05-24T12:27:33.548Z,46.48
2023-05-24T12:28:33.499Z,47.00
2023-05-24T12:29:33.505Z,47.91
2023-05-24T12:30:33.479Z,47.11
2023-05-24T12:31:33.500Z,47.71
2023-05-24T12:32:33.520Z,47.00
2023-05-24T12:33:33.451Z,47.00
2023-05-24T12:34:33.464Z,47.23
2023-05-24T12:35:33.443Z,47.11
2023-05-24T12:36:33.448Z,47.00
2023-05-24T12:37:33.420Z,46.60
2023-05-24T12:38:33.397Z,46.91
2023-05-24T12:39:33.388Z,47.59
2023-05-24T12:40:33.372Z,48.17
2023-05-24T12:41:33.410Z,46.78
2023-05-24T12:42:33.377Z,45.90
2023-05-24T12:43:33.328Z,45.09
2023-05-24T12:44:33.317Z,44.97
2023-05-24T12:45:33.337Z,44.45
2023-05-24T12:46:33.344Z,43.24
2023-05-24T12:47:33.346Z,42.84
2023-05-24T12:48:33.319Z,43.36
2023-05-24T12:49:33.282Z,43.84
2023-05-24T12:50:33.271Z,44.04
2023-05-24T12:51:33.240Z,43.74
2023-05-24T12:52:33.248Z,44.45